sensor_id;sensor_type;location;lat;lon;timestamp;P1;durP1;ratioP1;P2;durP2;ratioP2
48522;SDS011;34315;50.150;11.070;2023-04-15T00:02:18;6.50;;;3.70;;
48522;SDS011;34315;50.150;11.070;2023-04-15T00:07:19;5.88;;;3.78;;
48522;SDS011;34315;50.150;11.070;2023-04-15T00:12:20;6.38;;;3.92;;
48522;SDS011;34315;50.150;11.070;2023-04-15T00:17:22;6.07;;;3.78;;
48522;SDS011;34315;50.150;11.070;2023-04-15T00:22:23;5.57;;;3.60;;
48522;SDS011;34315;50.150;11.070;2023-04-15T00:27:24;5.35;;;3.38;;
48522;SDS011;34315;50.150;11.070;2023-04-15T00:32:25;5.55;;;3.33;;
48522;SDS011;34315;50.150;11.070;2023-04-15T00:37:26;5.88;;;3.05;;
48522;SDS011;34315;50.150;11.070;2023-04-15T00:42:27;5.10;;;3.00;;
48522;SDS011;34315;50.150;11.070;2023-04-15T00:47:28;5.10;;;3.30;;
48522;SDS011;34315;50.150;11.070;2023-04-15T00:52:30;6.78;;;3.20;;
48522;SDS011;34315;50.150;11.070;2023-04-15T00:57:31;6.93;;;3.13;;
48522;SDS011;34315;50.150;11.070;2023-04-15T01:02:33;5.63;;;3.35;;
48522;SDS011;34315;50.150;11.070;2023-04-15T01:07:36;4.97;;;2.90;;
48522;SDS011;34315;50.150;11.070;2023-04-15T01:12:37;5.50;;;2.83;;
48522;SDS011;34315;50.150;11.070;2023-04-15T01:17:39;6.03;;;3.10;;
48522;SDS011;34315;50.150;11.070;2023-04-15T01:22:41;4.43;;;2.88;;
48522;SDS011;34315;50.150;11.070;2023-04-15T01:27:43;5.75;;;3.25;;
48522;SDS011;34315;50.150;11.070;2023-04-15T01:32:45;5.65;;;3.45;;
48522;SDS011;34315;50.150;11.070;2023-04-15T01:37:46;15.07;;;3.78;;
48522;SDS011;34315;50.150;11.070;2023-04-15T01:42:47;6.75;;;3.30;;
48522;SDS011;34315;50.150;11.070;2023-04-15T01:47:49;7.22;;;3.30;;
48522;SDS011;34315;50.150;11.070;2023-04-15T01:52:50;5.07;;;2.95;;
48522;SDS011;34315;50.150;11.070;2023-04-15T01:57:52;4.30;;;2.85;;
48522;SDS011;34315;50.150;11.070;2023-04-15T02:02:54;5.03;;;3.08;;
48522;SDS011;34315;50.150;11.070;2023-04-15T02:07:58;5.03;;;3.17;;
48522;SDS011;34315;50.150;11.070;2023-04-15T02:12:59;4.55;;;3.08;;
48522;SDS011;34315;50.150;11.070;2023-04-15T02:18:03;6.13;;;3.63;;
48522;SDS011;34315;50.150;11.070;2023-04-15T02:23:04;6.72;;;3.67;;
48522;SDS011;34315;50.150;11.070;2023-04-15T02:28:07;7.05;;;3.25;;
48522;SDS011;34315;50.150;11.070;2023-04-15T02:33:08;5.32;;;2.80;;
48522;SDS011;34315;50.150;11.070;2023-04-15T02:38:10;5.47;;;3.05;;
48522;SDS011;34315;50.150;11.070;2023-04-15T02:43:11;4.72;;;2.97;;
48522;SDS011;34315;50.150;11.070;2023-04-15T02:48:12;4.45;;;3.03;;
48522;SDS011;34315;50.150;11.070;2023-04-15T02:53:13;5.75;;;3.30;;
48522;SDS011;34315;50.150;11.070;2023-04-15T02:58:15;4.75;;;2.97;;
48522;SDS011;34315;50.150;11.070;2023-04-15T03:03:16;6.90;;;2.90;;
48522;SDS011;34315;50.150;11.070;2023-04-15T03:08:17;5.18;;;3.17;;
48522;SDS011;34315;50.150;11.070;2023-04-15T03:13:18;5.55;;;2.75;;
48522;SDS011;34315;50.150;11.070;2023-04-15T03:18:20;4.82;;;2.97;;
48522;SDS011;34315;50.150;11.070;2023-04-15T03:23:21;7.13;;;3.40;;
48522;SDS011;34315;50.150;11.070;2023-04-15T03:28:23;6.07;;;3.22;;
48522;SDS011;34315;50.150;11.070;2023-04-15T03:33:26;4.90;;;2.95;;
48522;SDS011;34315;50.150;11.070;2023-04-15T03:38:27;5.38;;;2.90;;
48522;SDS011;34315;50.150;11.070;2023-04-15T03:43:28;6.22;;;3.38;;
48522;SDS011;34315;50.150;11.070;2023-04-15T03:48:29;6.43;;;3.70;;
48522;SDS011;34315;50.150;11.070;2023-04-15T03:53:30;5.63;;;3.38;;
48522;SDS011;34315;50.150;11.070;2023-04-15T03:58:31;4.82;;;3.17;;
48522;SDS011;34315;50.150;11.070;2023-04-15T04:03:32;6.80;;;3.95;;
48522;SDS011;34315;50.150;11.070;2023-04-15T04:08:34;5.45;;;3.58;;
48522;SDS011;34315;50.150;11.070;2023-04-15T04:13:35;5.93;;;3.38;;
48522;SDS011;34315;50.150;11.070;2023-04-15T04:18:36;5.60;;;3.88;;
48522;SDS011;34315;50.150;11.070;2023-04-15T04:23:37;5.53;;;3.80;;
48522;SDS011;34315;50.150;11.070;2023-04-15T04:28:38;6.68;;;3.85;;
48522;SDS011;34315;50.150;11.070;2023-04-15T04:33:40;9.05;;;4.40;;
48522;SDS011;34315;50.150;11.070;2023-04-15T04:38:41;8.32;;;3.83;;
48522;SDS011;34315;50.150;11.070;2023-04-15T04:43:42;5.95;;;3.90;;
48522;SDS011;34315;50.150;11.070;2023-04-15T04:48:43;7.63;;;4.03;;
48522;SDS011;34315;50.150;11.070;2023-04-15T04:53:44;7.68;;;4.25;;
48522;SDS011;34315;50.150;11.070;2023-04-15T04:58:45;6.63;;;4.43;;
48522;SDS011;34315;50.150;11.070;2023-04-15T05:03:47;8.82;;;4.68;;
48522;SDS011;34315;50.150;11.070;2023-04-15T05:08:48;7.38;;;4.95;;
48522;SDS011;34315;50.150;11.070;2023-04-15T05:13:49;8.38;;;4.38;;
48522;SDS011;34315;50.150;11.070;2023-04-15T05:18:50;7.22;;;4.50;;
48522;SDS011;34315;50.150;11.070;2023-04-15T05:23:51;7.70;;;5.10;;
48522;SDS011;34315;50.150;11.070;2023-04-15T05:28:52;9.23;;;5.00;;
48522;SDS011;34315;50.150;11.070;2023-04-15T05:33:54;7.85;;;5.18;;
48522;SDS011;34315;50.150;11.070;2023-04-15T05:38:55;8.50;;;5.20;;
48522;SDS011;34315;50.150;11.070;2023-04-15T05:43:56;9.43;;;5.43;;
48522;SDS011;34315;50.150;11.070;2023-04-15T05:48:57;13.63;;;5.57;;
48522;SDS011;34315;50.150;11.070;2023-04-15T05:53:58;9.23;;;5.97;;
48522;SDS011;34315;50.150;11.070;2023-04-15T05:58:59;8.13;;;5.60;;
48522;SDS011;34315;50.150;11.070;2023-04-15T06:04:00;7.88;;;5.53;;
48522;SDS011;34315;50.150;11.070;2023-04-15T06:09:01;8.82;;;5.15;;
48522;SDS011;34315;50.150;11.070;2023-04-15T06:14:02;10.73;;;5.57;;
48522;SDS011;34315;50.150;11.070;2023-04-15T06:19:03;8.93;;;5.95;;
48522;SDS011;34315;50.150;11.070;2023-04-15T06:24:04;9.32;;;5.47;;
48522;SDS011;34315;50.150;11.070;2023-04-15T06:29:06;13.02;;;6.30;;
48522;SDS011;34315;50.150;11.070;2023-04-15T06:34:07;11.80;;;5.97;;
48522;SDS011;34315;50.150;11.070;2023-04-15T06:39:08;8.63;;;5.18;;
48522;SDS011;34315;50.150;11.070;2023-04-15T06:44:09;11.15;;;6.47;;
48522;SDS011;34315;50.150;11.070;2023-04-15T06:49:11;9.98;;;5.97;;
48522;SDS011;34315;50.150;11.070;2023-04-15T06:54:12;11.05;;;6.10;;
48522;SDS011;34315;50.150;11.070;2023-04-15T06:59:13;11.50;;;5.85;;
48522;SDS011;34315;50.150;11.070;2023-04-15T07:04:14;10.68;;;6.60;;
48522;SDS011;34315;50.150;11.070;2023-04-15T07:09:15;10.30;;;6.18;;
48522;SDS011;34315;50.150;11.070;2023-04-15T07:14:16;11.32;;;6.00;;
48522;SDS011;34315;50.150;11.070;2023-04-15T07:19:17;10.95;;;6.88;;
48522;SDS011;34315;50.150;11.070;2023-04-15T07:24:18;8.57;;;5.70;;
48522;SDS011;34315;50.150;11.070;2023-04-15T07:29:20;11.15;;;6.72;;
48522;SDS011;34315;50.150;11.070;2023-04-15T07:34:21;10.45;;;6.40;;
48522;SDS011;34315;50.150;11.070;2023-04-15T07:39:22;9.35;;;6.32;;
48522;SDS011;34315;50.150;11.070;2023-04-15T07:44:24;12.27;;;6.38;;
48522;SDS011;34315;50.150;11.070;2023-04-15T07:49:26;10.05;;;6.80;;
48522;SDS011;34315;50.150;11.070;2023-04-15T07:54:27;10.07;;;6.80;;
48522;SDS011;34315;50.150;11.070;2023-04-15T07:59:28;11.15;;;7.15;;
48522;SDS011;34315;50.150;11.070;2023-04-15T08:04:30;12.95;;;7.25;;
48522;SDS011;34315;50.150;11.070;2023-04-15T08:09:31;12.13;;;7.38;;
48522;SDS011;34315;50.150;11.070;2023-04-15T08:14:33;10.15;;;7.15;;
48522;SDS011;34315;50.150;11.070;2023-04-15T08:19:35;12.35;;;6.93;;
48522;SDS011;34315;50.150;11.070;2023-04-15T08:24:36;11.63;;;7.30;;
48522;SDS011;34315;50.150;11.070;2023-04-15T08:29:37;8.35;;;5.50;;
48522;SDS011;34315;50.150;11.070;2023-04-15T08:34:38;9.05;;;6.07;;
48522;SDS011;34315;50.150;11.070;2023-04-15T08:39:39;8.70;;;5.32;;
48522;SDS011;34315;50.150;11.070;2023-04-15T08:44:40;7.60;;;5.20;;
48522;SDS011;34315;50.150;11.070;2023-04-15T08:49:42;8.70;;;5.65;;
48522;SDS011;34315;50.150;11.070;2023-04-15T08:54:44;8.05;;;5.13;;
48522;SDS011;34315;50.150;11.070;2023-04-15T08:59:45;6.78;;;4.70;;
48522;SDS011;34315;50.150;11.070;2023-04-15T09:04:46;8.18;;;5.05;;
48522;SDS011;34315;50.150;11.070;2023-04-15T09:09:47;7.25;;;4.60;;
48522;SDS011;34315;50.150;11.070;2023-04-15T09:14:49;7.05;;;4.22;;
48522;SDS011;34315;50.150;11.070;2023-04-15T09:20:05;7.95;;;4.63;;
48522;SDS011;34315;50.150;11.070;2023-04-15T09:30:15;6.30;;;3.92;;
48522;SDS011;34315;50.150;11.070;2023-04-15T09:35:17;7.30;;;4.13;;
48522;SDS011;34315;50.150;11.070;2023-04-15T09:45:38;6.47;;;3.80;;
48522;SDS011;34315;50.150;11.070;2023-04-15T09:50:48;6.25;;;3.80;;
48522;SDS011;34315;50.150;11.070;2023-04-15T09:55:50;7.70;;;4.50;;
48522;SDS011;34315;50.150;11.070;2023-04-15T10:00:53;8.35;;;4.88;;
48522;SDS011;34315;50.150;11.070;2023-04-15T10:05:55;6.63;;;4.50;;
48522;SDS011;34315;50.150;11.070;2023-04-15T10:10:59;7.57;;;4.78;;
48522;SDS011;34315;50.150;11.070;2023-04-15T10:16:05;6.70;;;4.70;;
48522;SDS011;34315;50.150;11.070;2023-04-15T10:21:08;7.40;;;4.57;;
48522;SDS011;34315;50.150;11.070;2023-04-15T10:26:09;6.28;;;4.03;;
48522;SDS011;34315;50.150;11.070;2023-04-15T10:31:12;6.20;;;3.97;;
48522;SDS011;34315;50.150;11.070;2023-04-15T10:36:17;6.82;;;4.40;;
48522;SDS011;34315;50.150;11.070;2023-04-15T10:41:20;7.13;;;4.15;;
48522;SDS011;34315;50.150;11.070;2023-04-15T10:51:45;7.07;;;3.65;;
48522;SDS011;34315;50.150;11.070;2023-04-15T10:56:51;8.73;;;4.18;;
48522;SDS011;34315;50.150;11.070;2023-04-15T11:02:06;8.20;;;5.20;;
48522;SDS011;34315;50.150;11.070;2023-04-15T11:07:07;6.45;;;3.58;;
48522;SDS011;34315;50.150;11.070;2023-04-15T11:12:09;4.85;;;3.08;;
48522;SDS011;34315;50.150;11.070;2023-04-15T11:17:10;5.50;;;3.08;;
48522;SDS011;34315;50.150;11.070;2023-04-15T11:22:11;5.80;;;3.25;;
48522;SDS011;34315;50.150;11.070;2023-04-15T11:27:24;4.65;;;3.13;;
48522;SDS011;34315;50.150;11.070;2023-04-15T11:32:25;5.60;;;3.22;;
48522;SDS011;34315;50.150;11.070;2023-04-15T11:37:27;4.05;;;2.50;;
48522;SDS011;34315;50.150;11.070;2023-04-15T11:42:29;5.45;;;2.70;;
48522;SDS011;34315;50.150;11.070;2023-04-15T11:47:30;4.63;;;2.78;;
48522;SDS011;34315;50.150;11.070;2023-04-15T11:52:31;4.00;;;2.50;;
48522;SDS011;34315;50.150;11.070;2023-04-15T11:57:33;4.18;;;2.40;;
48522;SDS011;34315;50.150;11.070;2023-04-15T12:02:37;4.00;;;2.20;;
48522;SDS011;34315;50.150;11.070;2023-04-15T12:07:57;3.93;;;2.10;;
48522;SDS011;34315;50.150;11.070;2023-04-15T12:12:59;3.28;;;2.08;;
48522;SDS011;34315;50.150;11.070;2023-04-15T12:18:00;3.22;;;2.15;;
48522;SDS011;34315;50.150;11.070;2023-04-15T12:23:05;4.07;;;2.20;;
48522;SDS011;34315;50.150;11.070;2023-04-15T12:28:10;2.67;;;1.65;;
48522;SDS011;34315;50.150;11.070;2023-04-15T12:33:11;3.42;;;1.85;;
48522;SDS011;34315;50.150;11.070;2023-04-15T12:38:12;4.25;;;2.15;;
48522;SDS011;34315;50.150;11.070;2023-04-15T12:43:13;5.00;;;2.05;;
48522;SDS011;34315;50.150;11.070;2023-04-15T12:48:14;2.28;;;1.60;;
48522;SDS011;34315;50.150;11.070;2023-04-15T12:53:16;2.90;;;1.85;;
48522;SDS011;34315;50.150;11.070;2023-04-15T12:58:17;3.40;;;1.88;;
48522;SDS011;34315;50.150;11.070;2023-04-15T13:03:18;2.28;;;1.67;;
48522;SDS011;34315;50.150;11.070;2023-04-15T13:08:19;3.08;;;1.73;;
48522;SDS011;34315;50.150;11.070;2023-04-15T13:13:20;3.78;;;1.90;;
48522;SDS011;34315;50.150;11.070;2023-04-15T13:18:22;4.43;;;1.85;;
48522;SDS011;34315;50.150;11.070;2023-04-15T13:23:23;4.10;;;2.30;;
48522;SDS011;34315;50.150;11.070;2023-04-15T13:28:24;2.58;;;1.70;;
48522;SDS011;34315;50.150;11.070;2023-04-15T13:33:25;2.25;;;1.52;;
48522;SDS011;34315;50.150;11.070;2023-04-15T13:38:27;3.90;;;2.03;;
48522;SDS011;34315;50.150;11.070;2023-04-15T13:43:28;2.25;;;1.50;;
48522;SDS011;34315;50.150;11.070;2023-04-15T13:48:29;2.25;;;1.30;;
48522;SDS011;34315;50.150;11.070;2023-04-15T13:53:30;2.70;;;2.08;;
48522;SDS011;34315;50.150;11.070;2023-04-15T13:58:31;4.10;;;2.60;;
48522;SDS011;34315;50.150;11.070;2023-04-15T14:03:35;3.88;;;2.58;;
48522;SDS011;34315;50.150;11.070;2023-04-15T14:08:37;2.60;;;1.77;;
48522;SDS011;34315;50.150;11.070;2023-04-15T14:13:38;3.03;;;2.10;;
48522;SDS011;34315;50.150;11.070;2023-04-15T14:18:39;2.00;;;1.50;;
48522;SDS011;34315;50.150;11.070;2023-04-15T14:23:41;2.97;;;1.70;;
48522;SDS011;34315;50.150;11.070;2023-04-15T14:28:42;4.53;;;2.30;;
48522;SDS011;34315;50.150;11.070;2023-04-15T14:33:44;4.22;;;1.50;;
48522;SDS011;34315;50.150;11.070;2023-04-15T14:38:46;4.85;;;2.58;;
48522;SDS011;34315;50.150;11.070;2023-04-15T14:43:47;3.22;;;1.80;;
48522;SDS011;34315;50.150;11.070;2023-04-15T14:48:48;5.28;;;2.00;;
48522;SDS011;34315;50.150;11.070;2023-04-15T14:53:49;5.65;;;1.75;;
48522;SDS011;34315;50.150;11.070;2023-04-15T14:58:50;3.80;;;1.80;;
48522;SDS011;34315;50.150;11.070;2023-04-15T15:03:52;5.82;;;2.92;;
48522;SDS011;34315;50.150;11.070;2023-04-15T15:08:54;2.53;;;1.77;;
48522;SDS011;34315;50.150;11.070;2023-04-15T15:13:55;2.85;;;1.73;;
48522;SDS011;34315;50.150;11.070;2023-04-15T15:18:56;3.10;;;1.60;;
48522;SDS011;34315;50.150;11.070;2023-04-15T15:23:57;2.58;;;1.52;;
48522;SDS011;34315;50.150;11.070;2023-04-15T15:28:58;3.92;;;1.80;;
48522;SDS011;34315;50.150;11.070;2023-04-15T15:34:00;3.67;;;2.10;;
48522;SDS011;34315;50.150;11.070;2023-04-15T15:39:01;3.00;;;1.75;;
48522;SDS011;34315;50.150;11.070;2023-04-15T15:44:02;3.80;;;1.77;;
48522;SDS011;34315;50.150;11.070;2023-04-15T15:49:03;3.45;;;1.70;;
48522;SDS011;34315;50.150;11.070;2023-04-15T15:54:04;3.60;;;1.73;;
48522;SDS011;34315;50.150;11.070;2023-04-15T15:59:05;3.05;;;1.83;;
48522;SDS011;34315;50.150;11.070;2023-04-15T16:04:06;3.55;;;1.75;;
48522;SDS011;34315;50.150;11.070;2023-04-15T16:09:07;3.33;;;1.63;;
48522;SDS011;34315;50.150;11.070;2023-04-15T16:14:08;2.17;;;1.40;;
48522;SDS011;34315;50.150;11.070;2023-04-15T16:19:10;2.35;;;1.20;;
48522;SDS011;34315;50.150;11.070;2023-04-15T16:24:11;2.65;;;1.27;;
48522;SDS011;34315;50.150;11.070;2023-04-15T16:29:13;2.47;;;1.00;;
48522;SDS011;34315;50.150;11.070;2023-04-15T16:34:14;1.15;;;0.95;;
48522;SDS011;34315;50.150;11.070;2023-04-15T16:39:17;2.67;;;1.40;;
48522;SDS011;34315;50.150;11.070;2023-04-15T16:44:19;1.63;;;1.13;;
48522;SDS011;34315;50.150;11.070;2023-04-15T16:49:20;2.17;;;1.38;;
48522;SDS011;34315;50.150;11.070;2023-04-15T16:54:21;2.78;;;1.38;;
48522;SDS011;34315;50.150;11.070;2023-04-15T16:59:22;1.65;;;1.10;;
48522;SDS011;34315;50.150;11.070;2023-04-15T17:04:24;2.80;;;1.40;;
48522;SDS011;34315;50.150;11.070;2023-04-15T17:09:26;2.90;;;1.60;;
48522;SDS011;34315;50.150;11.070;2023-04-15T17:14:28;1.40;;;1.05;;
48522;SDS011;34315;50.150;11.070;2023-04-15T17:19:29;1.27;;;1.10;;
48522;SDS011;34315;50.150;11.070;2023-04-15T17:24:30;2.63;;;1.40;;
48522;SDS011;34315;50.150;11.070;2023-04-15T17:29:31;3.50;;;1.40;;
48522;SDS011;34315;50.150;11.070;2023-04-15T17:34:32;3.70;;;2.00;;
48522;SDS011;34315;50.150;11.070;2023-04-15T17:39:33;3.30;;;1.95;;
48522;SDS011;34315;50.150;11.070;2023-04-15T17:44:35;3.92;;;2.00;;
48522;SDS011;34315;50.150;11.070;2023-04-15T17:49:36;2.70;;;1.60;;
48522;SDS011;34315;50.150;11.070;2023-04-15T17:54:37;4.47;;;2.00;;
48522;SDS011;34315;50.150;11.070;2023-04-15T17:59:39;3.67;;;1.83;;
48522;SDS011;34315;50.150;11.070;2023-04-15T18:04:43;4.78;;;2.50;;
48522;SDS011;34315;50.150;11.070;2023-04-15T18:09:44;3.65;;;2.03;;
48522;SDS011;34315;50.150;11.070;2023-04-15T18:14:45;4.72;;;2.25;;
48522;SDS011;34315;50.150;11.070;2023-04-15T18:19:47;4.57;;;2.20;;
48522;SDS011;34315;50.150;11.070;2023-04-15T18:24:48;3.55;;;2.22;;
48522;SDS011;34315;50.150;11.070;2023-04-15T18:29:51;6.70;;;2.50;;
48522;SDS011;34315;50.150;11.070;2023-04-15T18:34:53;6.35;;;2.85;;
48522;SDS011;34315;50.150;11.070;2023-04-15T18:39:55;6.15;;;2.90;;
48522;SDS011;34315;50.150;11.070;2023-04-15T18:44:56;3.92;;;1.98;;
48522;SDS011;34315;50.150;11.070;2023-04-15T18:49:58;5.40;;;2.10;;
48522;SDS011;34315;50.150;11.070;2023-04-15T18:54:59;5.00;;;2.35;;
48522;SDS011;34315;50.150;11.070;2023-04-15T19:00:02;5.07;;;2.47;;
48522;SDS011;34315;50.150;11.070;2023-04-15T19:05:04;5.95;;;2.35;;
48522;SDS011;34315;50.150;11.070;2023-04-15T19:10:05;6.47;;;2.60;;
48522;SDS011;34315;50.150;11.070;2023-04-15T19:15:07;4.80;;;2.28;;
48522;SDS011;34315;50.150;11.070;2023-04-15T19:20:08;9.55;;;3.25;;
48522;SDS011;34315;50.150;11.070;2023-04-15T19:25:10;5.13;;;2.58;;
48522;SDS011;34315;50.150;11.070;2023-04-15T19:30:11;3.88;;;2.33;;
48522;SDS011;34315;50.150;11.070;2023-04-15T19:35:12;7.07;;;3.00;;
48522;SDS011;34315;50.150;11.070;2023-04-15T19:40:13;4.65;;;2.33;;
48522;SDS011;34315;50.150;11.070;2023-04-15T19:45:14;6.40;;;3.13;;
48522;SDS011;34315;50.150;11.070;2023-04-15T19:50:15;4.82;;;2.08;;
48522;SDS011;34315;50.150;11.070;2023-04-15T19:55:17;3.60;;;1.95;;
48522;SDS011;34315;50.150;11.070;2023-04-15T20:00:18;2.63;;;1.83;;
48522;SDS011;34315;50.150;11.070;2023-04-15T20:05:20;3.05;;;1.90;;
48522;SDS011;34315;50.150;11.070;2023-04-15T20:10:21;6.13;;;2.10;;
48522;SDS011;34315;50.150;11.070;2023-04-15T20:15:22;6.18;;;2.95;;
48522;SDS011;34315;50.150;11.070;2023-04-15T20:20:23;4.57;;;2.45;;
48522;SDS011;34315;50.150;11.070;2023-04-15T20:25:24;3.95;;;2.33;;
48522;SDS011;34315;50.150;11.070;2023-04-15T20:30:25;3.25;;;2.20;;
48522;SDS011;34315;50.150;11.070;2023-04-15T20:35:28;4.22;;;2.33;;
48522;SDS011;34315;50.150;11.070;2023-04-15T20:40:30;4.72;;;2.60;;
48522;SDS011;34315;50.150;11.070;2023-04-15T20:45:33;4.97;;;2.63;;
48522;SDS011;34315;50.150;11.070;2023-04-15T20:50:34;3.90;;;2.42;;
48522;SDS011;34315;50.150;11.070;2023-04-15T20:55:35;4.53;;;2.78;;
48522;SDS011;34315;50.150;11.070;2023-04-15T21:00:36;6.82;;;3.70;;
48522;SDS011;34315;50.150;11.070;2023-04-15T21:05:38;7.50;;;4.35;;
48522;SDS011;34315;50.150;11.070;2023-04-15T21:10:39;12.20;;;5.22;;
48522;SDS011;34315;50.150;11.070;2023-04-15T21:15:40;9.38;;;4.47;;
48522;SDS011;34315;50.150;11.070;2023-04-15T21:20:41;8.45;;;4.85;;
48522;SDS011;34315;50.150;11.070;2023-04-15T21:25:43;5.78;;;3.72;;
48522;SDS011;34315;50.150;11.070;2023-04-15T21:30:44;6.72;;;3.75;;
48522;SDS011;34315;50.150;11.070;2023-04-15T21:35:45;7.80;;;3.92;;
48522;SDS011;34315;50.150;11.070;2023-04-15T21:40:48;11.18;;;5.45;;
48522;SDS011;34315;50.150;11.070;2023-04-15T21:45:50;8.60;;;4.95;;
48522;SDS011;34315;50.150;11.070;2023-04-15T21:50:51;9.02;;;4.40;;
48522;SDS011;34315;50.150;11.070;2023-04-15T21:55:57;8.38;;;4.05;;
48522;SDS011;34315;50.150;11.070;2023-04-15T22:00:58;5.95;;;3.53;;
48522;SDS011;34315;50.150;11.070;2023-04-15T22:06:00;14.52;;;6.38;;
48522;SDS011;34315;50.150;11.070;2023-04-15T22:11:02;8.27;;;4.00;;
48522;SDS011;34315;50.150;11.070;2023-04-15T22:16:03;5.32;;;3.15;;
48522;SDS011;34315;50.150;11.070;2023-04-15T22:21:04;6.00;;;3.15;;
48522;SDS011;34315;50.150;11.070;2023-04-15T22:26:06;4.95;;;3.00;;
48522;SDS011;34315;50.150;11.070;2023-04-15T22:31:07;4.72;;;2.95;;
48522;SDS011;34315;50.150;11.070;2023-04-15T22:36:09;5.07;;;2.92;;
48522;SDS011;34315;50.150;11.070;2023-04-15T22:41:10;7.82;;;3.75;;
48522;SDS011;34315;50.150;11.070;2023-04-15T22:46:12;5.93;;;3.58;;
48522;SDS011;34315;50.150;11.070;2023-04-15T22:51:19;8.55;;;3.92;;
48522;SDS011;34315;50.150;11.070;2023-04-15T22:56:21;8.05;;;3.85;;
48522;SDS011;34315;50.150;11.070;2023-04-15T23:01:22;5.68;;;3.42;;
48522;SDS011;34315;50.150;11.070;2023-04-15T23:06:23;5.55;;;3.35;;
48522;SDS011;34315;50.150;11.070;2023-04-15T23:11:24;5.55;;;3.72;;
48522;SDS011;34315;50.150;11.070;2023-04-15T23:16:26;5.93;;;3.63;;
48522;SDS011;34315;50.150;11.070;2023-04-15T23:21:27;5.95;;;3.80;;
48522;SDS011;34315;50.150;11.070;2023-04-15T23:26:28;5.78;;;3.35;;
48522;SDS011;34315;50.150;11.070;2023-04-15T23:31:29;5.00;;;3.10;;
48522;SDS011;34315;50.150;11.070;2023-04-15T23:36:30;6.20;;;3.80;;
48522;SDS011;34315;50.150;11.070;2023-04-15T23:41:32;6.60;;;3.33;;
48522;SDS011;34315;50.150;11.070;2023-04-15T23:46:33;6.85;;;3.80;;
48522;SDS011;34315;50.150;11.070;2023-04-15T23:51:34;5.60;;;3.47;;
48522;SDS011;34315;50.150;11.070;2023-04-15T23:56:35;6.60;;;3.95;;
